Time;durP1;ratioP1;P1;durP2;ratioP2;P2;SDS_P1;SDS_P2;PMS_P1;PMS_P2;Temp;Humidity;BMP_temperature;BMP_pressure;BME280_temperature;BME280_humidity;BME280_pressure;Samples;Min_cycle;Max_cycle;Signal;HPM_P1;HPM_P2
2021/03/07 00:00:15;;;;;;;6.47;2.60;;;3.80;77.50;;;;;;5052696;28;20045;-67
2021/03/07 00:02:42;;;;;;;8.63;2.53;;;3.80;77.50;;;;;;5053137;28;20087;-68
2021/03/07 00:05:10;;;;;;;7.17;2.10;;;3.70;77.40;;;;;;5053157;28;20048;-69
2021/03/07 00:07:36;;;;;;;6.60;2.17;;;3.70;77.50;;;;;;5052500;28;20128;-70
2021/03/07 00:10:05;;;;;;;6.67;2.20;;;3.70;77.70;;;;;;5053037;28;20123;-66
2021/03/07 00:12:31;;;;;;;10.00;2.30;;;3.70;77.50;;;;;;5052322;28;20052;-68
2021/03/07 00:14:57;;;;;;;8.07;1.90;;;3.70;77.30;;;;;;5053186;28;20045;-68
2021/03/07 00:17:23;;;;;;;7.70;1.83;;;3.70;77.40;;;;;;5053006;28;20405;-68
2021/03/07 00:19:48;;;;;;;4.63;1.87;;;3.70;77.30;;;;;;5051608;28;20509;-68
2021/03/07 00:22:14;;;;;;;6.30;2.00;;;3.60;77.30;;;;;;5052490;28;20409;-68
2021/03/07 00:24:40;;;;;;;5.53;1.90;;;3.60;77.30;;;;;;5034492;28;20131;-70
2021/03/07 00:27:05;;;;;;;7.57;2.20;;;3.60;77.40;;;;;;5052774;28;20052;-69
2021/03/07 00:29:31;;;;;;;7.40;2.23;;;3.60;77.40;;;;;;5052824;28;20041;-67
2021/03/07 00:31:56;;;;;;;10.77;2.53;;;3.60;77.40;;;;;;5051810;28;20041;-67
2021/03/07 00:34:22;;;;;;;7.43;1.90;;;3.60;77.20;;;;;;5052602;28;20481;-67
2021/03/07 00:36:48;;;;;;;8.20;2.33;;;3.60;77.10;;;;;;5052219;28;20053;-68
2021/03/07 00:39:14;;;;;;;9.67;2.30;;;3.60;77.10;;;;;;5052630;28;20041;-69
2021/03/07 00:41:42;;;;;;;7.87;2.23;;;3.70;77.30;;;;;;5052066;28;20069;-68
2021/03/07 00:44:09;;;;;;;6.70;2.17;;;3.70;77.10;;;;;;5051981;28;20037;-70
2021/03/07 00:46:39;;;;;;;6.40;2.03;;;3.70;77.00;;;;;;5052489;28;20032;-70
2021/03/07 00:49:04;;;;;;;6.85;2.03;;;3.70;77.20;;;;;;5051970;28;20121;-68
2021/03/07 00:51:30;;;;;;;5.57;1.83;;;3.70;77.10;;;;;;5034166;28;20116;-69
2021/03/07 00:53:55;;;;;;;4.40;1.80;;;3.70;77.00;;;;;;5034613;28;20039;-68
2021/03/07 00:56:21;;;;;;;7.27;2.10;;;3.70;76.90;;;;;;5051712;28;20136;-68
2021/03/07 00:58:47;;;;;;;9.57;2.30;;;3.70;76.80;;;;;;5034590;28;20037;-68
2021/03/07 01:01:12;;;;;;;5.83;1.90;;;3.70;77.00;;;;;;5051888;28;20052;-68
2021/03/07 01:03:38;;;;;;;8.70;2.00;;;3.60;76.80;;;;;;5051658;28;20452;-69
2021/03/07 01:06:04;;;;;;;7.37;1.90;;;3.60;76.80;;;;;;5052040;28;20056;-68
2021/03/07 01:08:29;;;;;;;5.30;1.90;;;3.60;76.90;;;;;;5051626;28;20037;-70
2021/03/07 01:10:55;;;;;;;6.57;2.13;;;3.70;76.80;;;;;;5051510;28;20040;-67
2021/03/07 01:13:21;;;;;;;6.83;2.00;;;3.70;76.80;;;;;;5052074;28;20044;-67
2021/03/07 01:15:47;;;;;;;6.63;1.80;;;3.70;76.90;;;;;;5051427;28;20037;-67
2021/03/07 01:18:13;;;;;;;6.97;1.80;;;3.70;76.70;;;;;;5051694;28;20040;-68
2021/03/07 01:20:42;;;;;;;8.63;1.80;;;3.70;76.60;;;;;;5051498;28;20485;-67
2021/03/07 01:23:08;;;;;;;9.07;2.03;;;3.70;76.60;;;;;;5033473;28;20406;-68
2021/03/07 01:25:34;;;;;;;5.23;1.60;;;3.70;76.60;;;;;;5051677;28;20025;-67
2021/03/07 01:28:05;;;;;;;6.83;2.00;;;3.70;76.60;;;;;;5051165;28;20033;-66
2021/03/07 01:30:33;;;;;;;8.10;1.80;;;3.70;76.60;;;;;;5033959;28;20445;-69
2021/03/07 01:32:59;;;;;;;4.70;1.70;;;3.60;76.60;;;;;;5033310;28;20576;-66
2021/03/07 01:35:25;;;;;;;7.87;1.63;;;3.60;76.80;;;;;;5051983;28;20033;-68
2021/03/07 01:37:51;;;;;;;7.40;1.50;;;3.70;76.80;;;;;;5051406;28;20116;-68
2021/03/07 01:40:25;;;;;;;8.37;1.80;;;3.70;76.80;;;;;;5050862;28;20367;-69
2021/03/07 01:42:53;;;;;;;7.03;1.80;;;3.70;76.70;;;;;;5051081;28;20048;-69
2021/03/07 01:45:23;;;;;;;6.53;1.90;;;3.70;76.70;;;;;;5050937;28;20041;-68
2021/03/07 01:47:54;;;;;;;5.85;1.77;;;3.70;76.60;;;;;;5051403;28;20385;-70
2021/03/07 01:50:23;;;;;;;7.30;1.70;;;3.70;76.40;;;;;;5050704;28;20378;-69
2021/03/07 01:52:49;;;;;;;6.33;1.63;;;3.70;76.40;;;;;;5051065;28;20037;-69
2021/03/07 01:55:16;;;;;;;5.33;1.63;;;3.70;76.50;;;;;;5034132;28;20544;-70
2021/03/07 01:57:45;;;;;;;7.40;1.70;;;3.70;76.60;;;;;;5054714;28;20086;-69
2021/03/07 02:00:15;;;;;;;5.00;1.60;;;3.70;76.60;;;;;;5051101;28;20100;-71
2021/03/07 02:02:41;;;;;;;5.40;1.57;;;3.70;76.60;;;;;;5050366;28;20041;-71
2021/03/07 02:05:13;;;;;;;7.17;1.90;;;3.70;77.20;;;;;;5051359;28;20052;-70
2021/03/07 02:07:40;;;;;;;8.53;1.80;;;3.70;76.60;;;;;;5050498;28;20073;-69
2021/03/07 02:10:09;;;;;;;6.20;2.17;;;3.70;76.70;;;;;;5042778;28;20068;-69
2021/03/07 02:12:36;;;;;;;6.10;2.00;;;3.70;76.60;;;;;;5050691;28;20045;-70
2021/03/07 02:15:06;;;;;;;8.17;1.80;;;3.70;76.60;;;;;;5050490;28;20048;-69
2021/03/07 02:17:32;;;;;;;6.35;2.03;;;3.70;76.60;;;;;;5051114;28;20175;-70
2021/03/07 02:19:58;;;;;;;5.97;1.80;;;3.70;76.80;;;;;;5032283;28;20095;-70
2021/03/07 02:23:01;;;;;;;8.53;1.73;;;3.70;76.80;;;;;;5050867;28;20033;-69
2021/03/07 02:25:28;;;;;;;6.27;1.70;;;3.70;76.70;;;;;;5045745;28;20048;-71
2021/03/07 02:27:56;;;;;;;7.03;1.90;;;3.70;76.60;;;;;;5050902;28;20048;-69
2021/03/07 02:30:23;;;;;;;5.07;1.60;;;3.70;76.70;;;;;;5050122;28;20040;-70
2021/03/07 02:33:17;;;;;;;6.70;2.10;;;3.70;76.70;;;;;;5032543;28;20501;-72
2021/03/07 02:35:56;;;;;;;5.00;1.43;;;3.70;76.60;;;;;;5050569;28;20397;-69
2021/03/07 02:38:23;;;;;;;4.33;1.50;;;3.80;76.70;;;;;;5050289;28;20412;-70
2021/03/07 02:40:54;;;;;;;6.60;1.83;;;3.80;76.50;;;;;;5032769;28;20041;-69
2021/03/07 02:43:21;;;;;;;5.07;1.70;;;3.70;76.50;;;;;;5052385;28;20409;-71
2021/03/07 02:45:49;;;;;;;6.17;1.80;;;3.80;76.50;;;;;;5036405;28;20049;-71
2021/03/07 02:48:20;;;;;;;9.97;2.13;;;3.70;76.40;;;;;;5054619;28;20041;-71
2021/03/07 02:50:46;;;;;;;;;;;3.70;76.30;;;;;;5054418;28;20033;-71
2021/03/07 02:53:17;;;;;;;5.73;1.70;;;3.70;76.50;;;;;;5054335;28;20269;-72
2021/03/07 02:55:47;;;;;;;7.67;1.80;;;3.70;76.50;;;;;;5053954;28;20037;-69
2021/03/07 02:58:15;;;;;;;6.50;1.87;;;3.60;76.40;;;;;;5054531;28;20041;-69
2021/03/07 03:00:50;;;;;;;6.63;1.67;;;3.60;76.60;;;;;;5054107;28;20231;-68
2021/03/07 03:03:19;;;;;;;8.20;1.90;;;3.60;76.70;;;;;;5054102;28;20541;-67
2021/03/07 03:05:47;;;;;;;7.60;2.17;;;3.60;76.80;;;;;;5054235;28;20033;-71
2021/03/07 03:08:15;;;;;;;5.93;2.20;;;3.60;76.50;;;;;;5053778;28;20507;-71
2021/03/07 03:10:41;;;;;;;6.47;2.00;;;3.60;76.50;;;;;;5054003;28;20128;-72
2021/03/07 03:13:08;;;;;;;8.47;1.90;;;3.50;76.70;;;;;;5053934;28;20045;-71
2021/03/07 03:15:35;;;;;;;6.23;2.17;;;3.50;76.80;;;;;;5053574;28;20032;-69
2021/03/07 03:18:01;;;;;;;6.47;2.10;;;3.50;76.90;;;;;;5053995;28;20040;-71
2021/03/07 03:20:28;;;;;;;7.30;2.13;;;3.60;76.70;;;;;;5053534;28;20036;-68
2021/03/07 03:22:53;;;;;;;5.37;2.00;;;3.60;76.70;;;;;;5053886;28;20124;-69
2021/03/07 03:25:19;;;;;;;5.13;2.00;;;3.60;76.80;;;;;;5056874;28;20068;-71
2021/03/07 03:27:45;;;;;;;8.67;2.00;;;3.60;76.60;;;;;;5056349;28;20036;-72
2021/03/07 03:30:13;;;;;;;6.07;2.07;;;3.60;76.60;;;;;;5056931;28;20045;-71
2021/03/07 03:32:39;;;;;;;6.00;1.90;;;3.60;76.70;;;;;;5056337;28;20052;-70
2021/03/07 03:35:08;;;;;;;8.37;2.00;;;3.60;76.60;;;;;;5055407;28;20044;-72
2021/03/07 03:37:34;;;;;;;6.23;2.00;;;3.60;76.60;;;;;;5055468;28;20048;-71
2021/03/07 03:40:00;;;;;;;6.03;2.10;;;3.60;76.40;;;;;;5055336;28;20037;-71
2021/03/07 03:42:26;;;;;;;4.83;1.67;;;3.60;76.60;;;;;;5055884;28;20103;-71
2021/03/07 03:44:53;;;;;;;6.43;2.07;;;3.60;76.70;;;;;;5054178;28;20408;-71
2021/03/07 03:47:20;;;;;;;7.93;1.90;;;3.70;76.70;;;;;;5053820;28;20043;-70
2021/03/07 03:49:53;;;;;;;6.60;2.17;;;3.60;76.50;;;;;;5053619;28;20064;-72
2021/03/07 03:52:21;;;;;;;6.90;2.20;;;3.70;77.10;;;;;;5052922;28;20040;-69
2021/03/07 03:55:05;;;;;;;8.27;2.30;;;3.70;76.60;;;;;;5052034;28;20037;-70
2021/03/07 03:57:32;;;;;;;8.70;2.70;;;3.70;76.60;;;;;;5053095;28;20041;-70
2021/03/07 04:00:02;;;;;;;6.80;2.53;;;3.60;76.70;;;;;;5053239;28;20043;-72
2021/03/07 04:02:34;;;;;;;10.30;2.77;;;3.70;76.70;;;;;;5052829;28;20420;-70
2021/03/07 04:05:02;;;;;;;10.50;3.13;;;3.60;76.70;;;;;;5053349;28;20371;-71
2021/03/07 04:07:28;;;;;;;7.83;2.70;;;3.60;76.90;;;;;;5052686;28;20131;-70
2021/03/07 04:09:54;;;;;;;8.67;2.60;;;3.60;77.10;;;;;;5054220;28;20059;-72
2021/03/07 04:12:22;;;;;;;7.53;2.70;;;3.60;76.90;;;;;;5055271;28;20087;-70
2021/03/07 04:14:48;;;;;;;8.47;2.73;;;3.60;77.00;;;;;;5035198;28;20083;-71
2021/03/07 04:17:18;;;;;;;5.33;2.27;;;3.60;77.00;;;;;;5052806;28;20106;-71
2021/03/07 04:19:45;;;;;;;8.73;2.50;;;3.60;76.90;;;;;;5052449;28;20047;-70
2021/03/07 04:22:13;;;;;;;5.77;2.10;;;3.60;77.00;;;;;;5052676;28;20382;-71
2021/03/07 04:24:39;;;;;;;7.23;2.07;;;3.60;77.10;;;;;;5053009;28;20201;-72
2021/03/07 04:27:05;;;;;;;7.97;2.43;;;3.60;76.90;;;;;;5052410;28;20112;-68
2021/03/07 04:29:31;;;;;;;5.13;2.10;;;3.60;77.00;;;;;;5052847;28;20049;-68
2021/03/07 04:31:57;;;;;;;5.57;1.93;;;3.60;77.00;;;;;;5033692;28;20489;-68
2021/03/07 04:34:24;;;;;;;6.53;2.10;;;3.60;76.90;;;;;;5034930;28;20036;-68
2021/03/07 04:36:51;;;;;;;9.40;2.17;;;3.60;76.80;;;;;;5052773;28;20029;-68
2021/03/07 04:39:17;;;;;;;8.17;2.20;;;3.60;76.80;;;;;;5052389;28;20128;-69
2021/03/07 04:41:43;;;;;;;6.00;2.13;;;3.60;76.90;;;;;;5052088;28;20048;-68
2021/03/07 04:44:09;;;;;;;4.47;2.17;;;3.60;76.90;;;;;;5034515;28;20041;-67
2021/03/07 04:46:34;;;;;;;7.53;2.30;;;3.60;76.90;;;;;;5052485;28;20031;-69
2021/03/07 04:49:00;;;;;;;7.53;2.50;;;3.70;76.80;;;;;;5052245;28;20507;-69
2021/03/07 04:51:26;;;;;;;6.17;2.17;;;3.70;76.80;;;;;;5051573;28;20119;-68
2021/03/07 04:53:51;;;;;;;9.27;2.53;;;3.70;76.70;;;;;;5018204;28;20152;-68
2021/03/07 04:56:17;;;;;;;6.33;2.50;;;3.70;76.50;;;;;;5051578;28;20033;-67
2021/03/07 04:58:43;;;;;;;7.80;2.50;;;3.70;76.50;;;;;;5052922;28;20033;-67
2021/03/07 05:01:09;;;;;;;8.17;2.50;;;3.70;76.60;;;;;;5017906;28;20068;-66
2021/03/07 05:03:35;;;;;;;9.03;2.60;;;3.70;77.10;;;;;;5051635;28;20045;-69
2021/03/07 05:06:01;;;;;;;8.90;2.33;;;3.70;76.40;;;;;;5051912;28;20040;-68
2021/03/07 05:08:27;;;;;;;8.67;3.00;;;3.70;76.40;;;;;;5051660;28;20043;-68
2021/03/07 05:10:54;;;;;;;5.50;2.60;;;3.70;76.50;;;;;;5051812;28;20033;-69
2021/03/07 05:13:20;;;;;;;6.23;2.57;;;3.70;76.30;;;;;;5051651;28;20049;-69
2021/03/07 05:15:46;;;;;;;7.67;2.90;;;3.70;76.40;;;;;;5051392;28;20048;-70
2021/03/07 05:18:11;;;;;;;7.27;2.53;;;3.70;76.40;;;;;;5051794;28;20033;-69
2021/03/07 05:20:37;;;;;;;6.97;2.77;;;3.70;76.40;;;;;;5051497;28;20045;-66
2021/03/07 05:23:03;;;;;;;7.53;2.77;;;3.70;76.50;;;;;;5051383;28;20052;-67
2021/03/07 05:25:28;;;;;;;9.00;2.77;;;3.70;76.50;;;;;;5051673;28;20041;-68
2021/03/07 05:27:54;;;;;;;11.40;3.20;;;3.70;76.40;;;;;;5033449;28;20047;-66
2021/03/07 05:30:20;;;;;;;9.50;3.00;;;3.70;76.40;;;;;;5051446;28;20033;-65
2021/03/07 05:32:46;;;;;;;8.50;3.10;;;3.70;76.50;;;;;;5051280;28;20155;-68
2021/03/07 05:35:12;;;;;;;7.47;3.07;;;3.70;76.40;;;;;;5051215;28;20108;-68
2021/03/07 05:37:38;;;;;;;10.00;4.23;;;3.70;76.60;;;;;;5051498;28;20405;-67
2021/03/07 05:40:05;;;;;;;8.30;2.83;;;3.70;76.50;;;;;;5033205;28;20082;-68
2021/03/07 05:42:33;;;;;;;6.90;3.13;;;3.70;76.50;;;;;;5050805;28;20404;-67
2021/03/07 05:44:59;;;;;;;9.03;3.30;;;3.70;76.40;;;;;;5051428;28;20130;-68
2021/03/07 05:47:25;;;;;;;10.87;3.40;;;3.70;76.50;;;;;;5050974;28;20500;-67
2021/03/07 05:49:51;;;;;;;9.23;3.03;;;3.70;76.50;;;;;;5051145;28;20120;-68
2021/03/07 05:52:22;;;;;;;9.27;3.20;;;3.70;76.40;;;;;;5050432;28;20128;-68
2021/03/07 05:54:48;;;;;;;10.27;3.22;;;3.70;76.50;;;;;;5016889;28;20037;-68
2021/03/07 05:57:15;;;;;;;7.73;3.17;;;3.70;76.40;;;;;;5051094;28;20048;-68
2021/03/07 05:59:42;;;;;;;8.13;3.40;;;3.70;76.40;;;;;;5033038;28;20041;-68
2021/03/07 06:02:13;;;;;;;9.37;3.30;;;3.70;76.50;;;;;;5024816;28;20055;-68
2021/03/07 06:04:38;;;;;;;9.98;3.53;;;3.70;76.40;;;;;;5050938;28;20489;-68
2021/03/07 06:07:04;;;;;;;8.10;2.90;;;3.80;76.60;;;;;;5033440;28;20043;-68
2021/03/07 06:09:30;;;;;;;8.40;3.00;;;3.80;76.40;;;;;;5033307;28;20043;-68
2021/03/07 06:11:57;;;;;;;11.37;3.70;;;3.80;76.60;;;;;;5051931;28;20121;-69
2021/03/07 06:14:31;;;;;;;9.67;3.40;;;3.80;76.50;;;;;;5051234;28;20037;-70
2021/03/07 06:17:06;;;;;;;9.10;3.47;;;3.80;76.50;;;;;;5049924;28;20092;-70
2021/03/07 06:19:59;;;;;;;8.00;3.47;;;3.80;76.40;;;;;;5050952;28;20456;-69
2021/03/07 06:22:27;;;;;;;8.60;3.07;;;3.80;76.30;;;;;;5050427;28;20037;-70
2021/03/07 06:24:53;;;;;;;8.27;3.40;;;3.80;76.50;;;;;;5051838;28;20051;-70
2021/03/07 06:27:19;;;;;;;11.27;3.37;;;3.90;76.60;;;;;;5051261;28;20071;-69
2021/03/07 06:30:04;;;;;;;11.80;3.67;;;3.90;76.40;;;;;;5033610;28;20044;-69
2021/03/07 06:32:32;;;;;;;11.40;3.50;;;3.90;76.30;;;;;;5032499;28;20037;-70
2021/03/07 06:34:58;;;;;;;10.60;3.50;;;3.90;76.30;;;;;;5033321;28;20033;-70
2021/03/07 06:37:24;;;;;;;10.80;3.50;;;3.90;76.40;;;;;;5050462;28;20044;-70
2021/03/07 06:39:51;;;;;;;8.93;3.70;;;3.90;76.50;;;;;;5033666;28;20107;-67
2021/03/07 06:42:18;;;;;;;9.90;3.60;;;3.90;76.40;;;;;;5050531;28;20045;-66
2021/03/07 06:44:59;;;;;;;10.97;3.63;;;4.00;76.40;;;;;;5032775;28;20040;-68
2021/03/07 06:47:25;;;;;;;9.63;3.43;;;4.00;76.50;;;;;;5051531;28;20041;-69
2021/03/07 06:50:10;;;;;;;7.73;3.60;;;4.10;76.70;;;;;;5050191;28;20063;-68
2021/03/07 06:52:47;;;;;;;8.83;3.70;;;4.10;76.30;;;;;;5050492;28;20515;-69
2021/03/07 06:55:14;;;;;;;9.23;3.53;;;4.10;76.20;;;;;;5051117;28;20056;-69
2021/03/07 06:57:39;;;;;;;13.53;3.40;;;4.10;76.10;;;;;;5051518;28;20041;-68
2021/03/07 07:00:06;;;;;;;12.73;3.70;;;4.20;76.10;;;;;;5050513;28;20037;-68
2021/03/07 07:02:32;;;;;;;13.80;3.60;;;4.20;76.10;;;;;;5033946;28;20111;-69
2021/03/07 07:04:57;;;;;;;10.13;3.50;;;4.30;76.00;;;;;;5050211;28;20029;-72
2021/03/07 07:07:25;;;;;;;10.23;3.00;;;4.30;75.70;;;;;;5050393;28;20061;-71
2021/03/07 07:10:05;;;;;;;7.37;3.20;;;4.40;75.30;;;;;;5050355;28;20041;-71
2021/03/07 07:12:31;;;;;;;13.98;3.42;;;4.40;75.30;;;;;;5049902;28;20040;-69
2021/03/07 07:15:06;;;;;;;8.60;2.90;;;4.50;75.00;;;;;;5050346;28;20029;-71
2021/03/07 07:17:32;;;;;;;8.23;3.10;;;4.50;74.30;;;;;;5050068;28;20540;-71
2021/03/07 07:19:58;;;;;;;12.03;3.03;;;4.50;74.10;;;;;;5050292;28;20112;-71
2021/03/07 07:22:23;;;;;;;9.07;3.10;;;4.50;73.80;;;;;;5049638;28;20129;-72
2021/03/07 07:24:50;;;;;;;10.40;2.80;;;4.40;73.80;;;;;;5050467;28;20043;-74
2021/03/07 07:27:15;;;;;;;10.87;2.97;;;4.40;73.60;;;;;;5050343;28;20108;-73
2021/03/07 07:29:41;;;;;;;10.60;3.20;;;4.40;73.10;;;;;;5053591;28;20124;-72
2021/03/07 07:32:34;;;;;;;12.93;3.60;;;4.40;72.90;;;;;;5056007;28;20041;-72
2021/03/07 07:35:08;;;;;;;9.83;3.10;;;4.40;73.00;;;;;;5056007;28;20094;-72
2021/03/07 07:37:40;;;;;;;8.57;2.77;;;4.50;72.70;;;;;;5058351;28;20049;-72
2021/03/07 07:40:07;;;;;;;8.83;2.60;;;4.50;72.50;;;;;;5056343;28;20090;-71
2021/03/07 07:42:35;;;;;;;12.87;2.70;;;4.60;72.30;;;;;;5035796;28;20060;-71
2021/03/07 07:45:09;;;;;;;9.53;2.53;;;4.50;72.10;;;;;;5053440;28;20045;-69
2021/03/07 07:47:43;;;;;;;7.60;2.30;;;4.60;72.10;;;;;;5053571;28;20059;-72
2021/03/07 07:52:58;;;;;;;9.43;2.47;;;4.60;71.40;;;;;;5036324;28;20041;-68
2021/03/07 07:55:47;;;;;;;7.93;2.65;;;4.70;71.50;;;;;;5055465;28;20093;-69
2021/03/07 07:58:35;;;;;;;8.30;2.40;;;4.60;71.50;;;;;;5057233;28;20512;-68
2021/03/07 08:01:02;;;;;;;9.23;2.17;;;4.70;71.50;;;;;;5035499;28;20120;-69
2021/03/07 08:03:39;;;;;;;10.23;2.30;;;4.80;71.10;;;;;;5053198;28;20037;-70
2021/03/07 08:06:06;;;;;;;8.10;2.10;;;4.80;70.80;;;;;;5053859;28;20041;-70
2021/03/07 08:08:50;;;;;;;7.20;1.97;;;4.80;70.80;;;;;;5052385;28;20075;-69
2021/03/07 08:11:18;;;;;;;11.33;2.53;;;4.80;70.50;;;;;;5053197;28;20064;-69
2021/03/07 08:13:54;;;;;;;9.10;2.03;;;4.80;70.30;;;;;;5052457;28;20126;-69
2021/03/07 08:16:38;;;;;;;7.40;2.07;;;4.70;70.30;;;;;;5036017;28;20045;-69
2021/03/07 08:19:05;;;;;;;8.40;2.00;;;4.80;70.60;;;;;;5034513;28;20516;-69
2021/03/07 08:22:04;;;;;;;8.67;2.10;;;4.80;70.60;;;;;;5051799;28;20044;-69
2021/03/07 08:24:51;;;;;;;11.27;2.13;;;4.90;70.30;;;;;;5051688;28;20040;-69
2021/03/07 08:27:40;;;;;;;7.03;1.90;;;4.90;70.00;;;;;;5051866;28;20057;-70
2021/03/07 08:30:16;;;;;;;7.43;2.00;;;4.90;69.90;;;;;;5034248;28;20037;-68
2021/03/07 08:32:43;;;;;;;9.63;2.30;;;5.00;70.00;;;;;;5051371;28;20049;-68
2021/03/07 08:35:16;;;;;;;9.47;2.20;;;5.00;70.10;;;;;;5052078;28;20037;-69
2021/03/07 08:38:02;;;;;;;8.87;2.00;;;5.10;69.90;;;;;;5051653;28;20415;-69
2021/03/07 08:40:33;;;;;;;10.80;2.10;;;5.10;69.70;;;;;;5033125;28;20047;-70
2021/03/07 08:43:22;;;;;;;10.77;2.63;;;5.20;69.90;;;;;;5051390;28;20064;-70
2021/03/07 08:46:08;;;;;;;6.80;1.90;;;5.20;69.70;;;;;;5050976;28;20044;-71
2021/03/07 08:48:34;;;;;;;7.10;2.10;;;5.30;69.30;;;;;;5051595;28;20485;-72
2021/03/07 08:51:01;;;;;;;6.77;2.00;;;5.30;69.50;;;;;;5049790;28;20508;-71
2021/03/07 08:53:29;;;;;;;7.10;2.20;;;5.30;69.40;;;;;;5051538;28;20037;-69
2021/03/07 08:55:56;;;;;;;11.47;2.30;;;5.30;68.80;;;;;;5051173;28;20040;-70
2021/03/07 08:58:22;;;;;;;9.43;2.03;;;5.20;68.60;;;;;;5052095;28;20416;-69
2021/03/07 09:00:53;;;;;;;8.87;2.43;;;5.20;68.90;;;;;;5051278;28;20121;-69
2021/03/07 09:03:19;;;;;;;;;;;5.20;69.20;;;;;;5051499;28;20056;-68
2021/03/07 09:05:45;;;;;;;7.77;2.17;;;5.30;69.10;;;;;;5017373;28;19909;-70
2021/03/07 09:08:11;;;;;;;10.23;2.10;;;5.30;69.10;;;;;;5051306;28;20110;-68
2021/03/07 09:10:45;;;;;;;9.03;2.23;;;5.40;69.00;;;;;;5051025;28;20041;-68
2021/03/07 09:13:12;;;;;;;9.97;2.07;;;5.70;69.70;;;;;;5051217;28;20045;-70
2021/03/07 09:15:48;;;;;;;10.43;2.30;;;6.10;70.30;;;;;;5051129;28;20033;-70
2021/03/07 09:18:15;;;;;;;6.03;1.80;;;6.70;69.70;;;;;;5050707;28;20418;-69
2021/03/07 09:21:02;;;;;;;9.90;2.23;;;7.20;68.80;;;;;;5050889;28;20071;-69
2021/03/07 09:23:30;;;;;;;13.63;2.60;;;7.60;68.10;;;;;;5035876;28;20059;-68
2021/03/07 09:25:57;;;;;;;9.90;2.50;;;8.30;67.80;;;;;;5051114;28;20044;-69
2021/03/07 09:28:34;;;;;;;7.07;1.80;;;9.30;68.40;;;;;;5050750;28;20044;-69
2021/03/07 09:31:01;;;;;;;4.45;1.58;;;10.30;66.30;;;;;;5049917;28;20183;-70
2021/03/07 09:33:28;;;;;;;10.88;2.28;;;10.40;63.10;;;;;;5050671;28;20056;-70
2021/03/07 09:36:11;;;;;;;7.82;2.20;;;10.30;62.60;;;;;;5050141;28;20037;-72
2021/03/07 09:38:54;;;;;;;7.63;2.13;;;10.30;62.30;;;;;;5050468;28;20032;-71
2021/03/07 09:41:36;;;;;;;8.27;1.88;;;10.00;60.40;;;;;;5049382;28;20121;-71
2021/03/07 09:44:05;;;;;;;7.60;2.17;;;9.30;58.70;;;;;;5050666;28;20041;-71
2021/03/07 09:46:32;;;;;;;9.33;2.30;;;8.60;59.80;;;;;;5050509;28;20049;-70
2021/03/07 09:49:06;;;;;;;7.77;2.30;;;8.30;61.10;;;;;;5050486;28;20060;-68
2021/03/07 09:51:37;;;;;;;10.30;2.20;;;8.10;60.70;;;;;;5048347;28;20045;-70
2021/03/07 09:54:09;;;;;;;9.33;2.20;;;8.00;61.50;;;;;;5050044;28;20045;-70
2021/03/07 09:56:35;;;;;;;8.13;2.00;;;8.00;61.40;;;;;;5058032;28;20431;-72
2021/03/07 09:59:25;;;;;;;8.03;2.17;;;8.00;61.50;;;;;;5070520;28;20414;-72
2021/03/07 10:01:58;;;;;;;10.23;2.20;;;8.10;61.60;;;;;;5069296;28;20040;-71
2021/03/07 10:04:42;;;;;;;8.80;2.13;;;8.00;60.60;;;;;;5058546;28;20065;-72
2021/03/07 10:07:17;;;;;;;8.80;2.23;;;8.10;61.40;;;;;;5050089;28;20046;-70
2021/03/07 10:10:11;;;;;;;5.73;2.10;;;8.20;61.30;;;;;;5032410;28;20447;-72
2021/03/07 10:12:54;;;;;;;7.63;2.17;;;8.30;61.30;;;;;;5031138;28;20044;-70
2021/03/07 10:15:29;;;;;;;9.00;2.23;;;8.50;60.50;;;;;;5049504;28;20048;-70
2021/03/07 10:18:01;;;;;;;7.43;2.40;;;8.50;59.60;;;;;;5048471;28;20496;-71
2021/03/07 10:20:38;;;;;;;6.53;2.20;;;8.50;60.20;;;;;;5047472;28;20731;-71
2021/03/07 10:23:04;;;;;;;9.30;2.60;;;8.60;60.40;;;;;;5047378;28;20071;-71
2021/03/07 10:25:32;;;;;;;6.00;2.10;;;8.80;60.50;;;;;;5030565;28;20044;-71
2021/03/07 10:28:03;;;;;;;9.10;2.20;;;8.90;59.90;;;;;;5030786;28;20044;-72
2021/03/07 10:30:37;;;;;;;7.82;2.20;;;8.90;58.80;;;;;;5048659;28;20616;-72
2021/03/07 10:33:23;;;;;;;11.00;2.53;;;9.00;59.20;;;;;;5048342;28;20049;-71
2021/03/07 10:36:05;;;;;;;9.53;2.27;;;9.00;59.00;;;;;;5049507;28;20060;-72
2021/03/07 10:38:34;;;;;;;7.78;2.13;;;9.30;59.40;;;;;;5049252;28;20110;-70
2021/03/07 10:41:24;;;;;;;10.60;2.30;;;9.70;59.60;;;;;;5046639;28;20044;-71
2021/03/07 10:43:58;;;;;;;8.93;2.28;;;10.10;59.20;;;;;;5037060;28;20520;-72
2021/03/07 10:46:26;;;;;;;8.40;2.60;;;10.50;57.90;;;;;;5030613;28;20574;-72
2021/03/07 10:48:57;;;;;;;7.95;2.15;;;10.40;56.10;;;;;;5047747;28;20037;-72
2021/03/07 10:51:23;;;;;;;6.85;2.47;;;10.00;55.50;;;;;;5049174;28;20033;-71
2021/03/07 10:53:49;;;;;;;11.45;2.47;;;9.50;55.30;;;;;;5031210;28;20134;-69
2021/03/07 10:56:14;;;;;;;7.40;2.58;;;9.20;56.00;;;;;;5050018;28;20037;-73
2021/03/07 10:58:40;;;;;;;5.85;2.08;;;9.00;57.20;;;;;;5052314;28;20032;-71
2021/03/07 11:01:06;;;;;;;6.63;2.30;;;9.00;57.40;;;;;;5048948;28;20352;-71
2021/03/07 11:03:32;;;;;;;9.57;2.90;;;8.90;57.30;;;;;;5032560;28;20040;-69
2021/03/07 11:05:58;;;;;;;8.27;2.87;;;8.80;57.10;;;;;;5051649;28;20056;-68
2021/03/07 11:08:24;;;;;;;8.53;2.93;;;8.50;56.10;;;;;;5051029;28;20033;-70
2021/03/07 11:10:49;;;;;;;7.87;2.87;;;8.10;56.70;;;;;;5017634;28;20041;-70
2021/03/07 11:13:15;;;;;;;8.87;3.03;;;7.80;57.40;;;;;;5018211;28;20045;-71
2021/03/07 11:15:41;;;;;;;9.07;3.20;;;7.70;58.10;;;;;;5033851;28;20120;-72
2021/03/07 11:18:07;;;;;;;8.23;3.17;;;7.60;58.80;;;;;;5035662;28;20686;-71
2021/03/07 11:20:32;;;;;;;9.07;3.13;;;7.50;58.60;;;;;;5052288;28;20515;-71
2021/03/07 11:22:58;;;;;;;8.73;3.03;;;7.40;58.50;;;;;;5035157;28;20511;-73
2021/03/07 11:25:23;;;;;;;9.57;3.13;;;7.20;58.90;;;;;;5035628;28;20090;-71
2021/03/07 11:27:50;;;;;;;10.07;3.00;;;7.20;59.30;;;;;;5034531;28;20053;-72
2021/03/07 11:30:16;;;;;;;10.10;3.30;;;7.10;59.60;;;;;;5051807;28;20037;-73
2021/03/07 11:32:42;;;;;;;7.97;3.30;;;7.10;59.40;;;;;;5051056;28;20049;-72
2021/03/07 11:35:08;;;;;;;13.50;3.60;;;7.10;59.90;;;;;;5052308;28;20040;-72
2021/03/07 11:37:34;;;;;;;11.30;3.30;;;7.10;60.10;;;;;;5052345;28;20041;-72
2021/03/07 11:39:59;;;;;;;11.43;3.83;;;7.20;60.60;;;;;;5033649;28;20482;-72
2021/03/07 11:42:25;;;;;;;8.90;3.77;;;7.20;60.10;;;;;;5052078;28;20091;-72
2021/03/07 11:44:51;;;;;;;10.20;4.30;;;7.20;60.10;;;;;;5052348;28;20040;-74
2021/03/07 11:47:17;;;;;;;14.77;4.27;;;7.20;59.80;;;;;;5047831;28;20032;-73
2021/03/07 11:49:43;;;;;;;14.33;4.70;;;7.10;60.00;;;;;;5072964;28;20045;-73
2021/03/07 11:52:09;;;;;;;12.17;4.73;;;7.00;60.30;;;;;;5054455;28;20088;-73
2021/03/07 11:54:36;;;;;;;12.93;5.00;;;7.00;60.50;;;;;;5022632;28;20037;-73
2021/03/07 11:57:01;;;;;;;12.90;5.17;;;7.00;61.30;;;;;;5072819;28;20433;-73
2021/03/07 11:59:28;;;;;;;11.60;5.33;;;7.10;61.60;;;;;;5073257;28;20115;-73
2021/03/07 12:01:53;;;;;;;13.23;5.10;;;7.10;61.50;;;;;;5072040;28;20032;-72
2021/03/07 12:04:19;;;;;;;15.17;5.90;;;7.10;61.20;;;;;;5072350;28;20266;-73
2021/03/07 12:06:45;;;;;;;12.43;5.60;;;7.10;61.40;;;;;;5072632;28;20040;-72
2021/03/07 12:09:11;;;;;;;17.60;6.20;;;7.10;61.90;;;;;;5054449;28;20063;-72
2021/03/07 12:11:36;;;;;;;13.60;6.00;;;7.10;61.80;;;;;;5054236;28;20048;-71
2021/03/07 12:14:02;;;;;;;14.60;6.37;;;7.10;62.20;;;;;;5072487;28;20036;-71
2021/03/07 12:16:28;;;;;;;15.97;6.20;;;7.10;62.10;;;;;;5053083;28;20405;-71
2021/03/07 12:18:53;;;;;;;15.03;6.53;;;7.10;61.80;;;;;;5055662;28;20043;-72
2021/03/07 12:21:19;;;;;;;14.07;6.37;;;6.90;62.20;;;;;;5056066;28;20033;-69
2021/03/07 12:23:45;;;;;;;13.10;6.53;;;6.90;62.70;;;;;;5073564;28;20035;-66
2021/03/07 12:26:10;;;;;;;14.27;6.80;;;6.80;62.80;;;;;;5073417;28;20051;-70
2021/03/07 12:28:36;;;;;;;16.20;6.73;;;6.80;63.00;;;;;;5073969;28;20105;-68
2021/03/07 12:31:02;;;;;;;13.80;6.70;;;6.70;63.30;;;;;;5073240;28;20048;-67
2021/03/07 12:33:28;;;;;;;20.50;7.63;;;6.70;64.10;;;;;;5073632;28;20041;-70
2021/03/07 12:35:53;;;;;;;18.50;7.10;;;6.70;64.60;;;;;;5071998;28;20075;-69
2021/03/07 12:38:20;;;;;;;17.07;7.87;;;6.80;64.60;;;;;;5052016;28;20040;-69
2021/03/07 12:40:46;;;;;;;17.23;6.87;;;6.90;64.60;;;;;;5052450;28;20033;-68
2021/03/07 12:43:11;;;;;;;18.53;6.97;;;7.00;64.30;;;;;;5052541;28;20043;-68
2021/03/07 12:45:39;;;;;;;18.73;7.77;;;7.00;64.30;;;;;;5051193;28;20044;-70
2021/03/07 12:48:05;;;;;;;14.93;7.47;;;6.90;64.40;;;;;;5052272;28;20040;-67
2021/03/07 12:50:30;;;;;;;17.73;8.10;;;6.90;65.10;;;;;;5051609;28;20468;-68
2021/03/07 12:52:56;;;;;;;15.73;7.50;;;7.00;65.40;;;;;;5033405;28;20091;-67
2021/03/07 12:55:22;;;;;;;17.27;8.03;;;7.10;65.40;;;;;;5053913;28;20401;-70
2021/03/07 12:57:47;;;;;;;19.50;7.80;;;7.20;65.50;;;;;;5034407;28;20036;-70
2021/03/07 13:00:13;;;;;;;16.40;7.43;;;7.30;65.90;;;;;;5056271;28;20109;-69
2021/03/07 13:02:39;;;;;;;19.20;8.20;;;7.50;65.20;;;;;;5028371;28;20110;-68
2021/03/07 13:05:06;;;;;;;17.43;7.17;;;7.70;64.80;;;;;;5061195;28;20477;-69
2021/03/07 13:07:32;;;;;;;19.40;8.07;;;7.60;64.70;;;;;;5042384;28;20033;-70